sensor_id;sensor_type;location;lat;lon;timestamp;temperature;humidity
25328;DHT22;13279;51.300;12.394;2023-09-12T00:00:54;18.90;99.90
25328;DHT22;13279;51.300;12.394;2023-09-12T00:03:23;18.80;99.90
25328;DHT22;13279;51.300;12.394;2023-09-12T00:05:51;18.90;99.90
25328;DHT22;13279;51.300;12.394;2023-09-12T00:08:19;18.80;99.90
25328;DHT22;13279;51.300;12.394;2023-09-12T00:10:57;18.80;99.90
25328;DHT22;13279;51.300;12.394;2023-09-12T00:13:25;18.80;99.90
25328;DHT22;13279;51.300;12.394;2023-09-12T00:15:52;18.80;99.90
25328;DHT22;13279;51.300;12.394;2023-09-12T00:18:20;18.80;99.90
25328;DHT22;13279;51.300;12.394;2023-09-12T00:20:52;18.80;99.90
25328;DHT22;13279;51.300;12.394;2023-09-12T00:23:21;18.80;99.90
25328;DHT22;13279;51.300;12.394;2023-09-12T00:25:49;18.80;99.90
25328;DHT22;13279;51.300;12.394;2023-09-12T00:28:17;18.80;99.90
25328;DHT22;13279;51.300;12.394;2023-09-12T00:30:44;18.70;99.90
25328;DHT22;13279;51.300;12.394;2023-09-12T00:33:12;18.70;99.90
25328;DHT22;13279;51.300;12.394;2023-09-12T00:35:39;18.60;99.90
25328;DHT22;13279;51.300;12.394;2023-09-12T00:38:09;18.60;99.90
25328;DHT22;13279;51.300;12.394;2023-09-12T00:40:37;18.60;99.90
25328;DHT22;13279;51.300;12.394;2023-09-12T00:43:04;18.60;99.90
25328;DHT22;13279;51.300;12.394;2023-09-12T00:45:32;18.60;99.90
25328;DHT22;13279;51.300;12.394;2023-09-12T00:48:01;18.50;99.90
25328;DHT22;13279;51.300;12.394;2023-09-12T00:50:31;18.60;99.90
25328;DHT22;13279;51.300;12.394;2023-09-12T00:52:59;18.50;99.90
25328;DHT22;13279;51.300;12.394;2023-09-12T00:55:31;18.50;99.90
25328;DHT22;13279;51.300;12.394;2023-09-12T00:58:01;18.50;99.90
25328;DHT22;13279;51.300;12.394;2023-09-12T01:00:30;18.50;99.90
25328;DHT22;13279;51.300;12.394;2023-09-12T01:02:58;18.50;99.90
25328;DHT22;13279;51.300;12.394;2023-09-12T01:05:27;18.50;99.90
25328;DHT22;13279;51.300;12.394;2023-09-12T01:07:56;18.50;99.90
25328;DHT22;13279;51.300;12.394;2023-09-12T01:10:24;18.50;99.90
25328;DHT22;13279;51.300;12.394;2023-09-12T01:12:53;18.50;99.90
25328;DHT22;13279;51.300;12.394;2023-09-12T01:15:20;18.40;99.90
25328;DHT22;13279;51.300;12.394;2023-09-12T01:17:48;18.40;99.90
25328;DHT22;13279;51.300;12.394;2023-09-12T01:20:21;18.30;99.90
25328;DHT22;13279;51.300;12.394;2023-09-12T01:23:00;18.40;99.90
25328;DHT22;13279;51.300;12.394;2023-09-12T01:25:50;18.50;99.90
25328;DHT22;13279;51.300;12.394;2023-09-12T01:28:30;18.40;99.90
25328;DHT22;13279;51.300;12.394;2023-09-12T01:30:58;18.30;99.90
25328;DHT22;13279;51.300;12.394;2023-09-12T01:33:28;18.30;99.90
25328;DHT22;13279;51.300;12.394;2023-09-12T01:35:59;18.30;99.90
25328;DHT22;13279;51.300;12.394;2023-09-12T01:38:27;18.30;99.90
25328;DHT22;13279;51.300;12.394;2023-09-12T01:40:56;18.30;99.90
25328;DHT22;13279;51.300;12.394;2023-09-12T01:43:28;18.20;99.90
25328;DHT22;13279;51.300;12.394;2023-09-12T01:45:59;18.20;99.90
25328;DHT22;13279;51.300;12.394;2023-09-12T01:48:34;18.20;99.90
25328;DHT22;13279;51.300;12.394;2023-09-12T01:51:03;18.20;99.90
25328;DHT22;13279;51.300;12.394;2023-09-12T01:53:33;18.20;99.90
25328;DHT22;13279;51.300;12.394;2023-09-12T01:56:08;18.10;99.90
25328;DHT22;13279;51.300;12.394;2023-09-12T01:58:40;18.20;99.90
25328;DHT22;13279;51.300;12.394;2023-09-12T02:01:08;18.20;99.90
25328;DHT22;13279;51.300;12.394;2023-09-12T02:03:36;18.10;99.90
25328;DHT22;13279;51.300;12.394;2023-09-12T02:06:04;18.00;99.90
25328;DHT22;13279;51.300;12.394;2023-09-12T02:08:32;18.00;99.90
25328;DHT22;13279;51.300;12.394;2023-09-12T02:11:00;18.00;99.90
25328;DHT22;13279;51.300;12.394;2023-09-12T02:13:29;18.00;99.90
25328;DHT22;13279;51.300;12.394;2023-09-12T02:16:01;18.00;99.90
25328;DHT22;13279;51.300;12.394;2023-09-12T02:18:29;18.00;99.90
25328;DHT22;13279;51.300;12.394;2023-09-12T02:20:58;17.90;99.90
25328;DHT22;13279;51.300;12.394;2023-09-12T02:23:28;17.90;99.90
25328;DHT22;13279;51.300;12.394;2023-09-12T02:25:56;17.90;99.90
25328;DHT22;13279;51.300;12.394;2023-09-12T02:28:24;18.00;99.90
25328;DHT22;13279;51.300;12.394;2023-09-12T02:30:51;17.90;99.90
25328;DHT22;13279;51.300;12.394;2023-09-12T02:33:21;17.90;99.90
25328;DHT22;13279;51.300;12.394;2023-09-12T02:35:48;17.90;99.90
25328;DHT22;13279;51.300;12.394;2023-09-12T02:38:17;17.90;99.90
25328;DHT22;13279;51.300;12.394;2023-09-12T02:40:45;17.90;99.90
25328;DHT22;13279;51.300;12.394;2023-09-12T02:43:13;17.80;99.90
25328;DHT22;13279;51.300;12.394;2023-09-12T02:45:41;17.80;99.90
25328;DHT22;13279;51.300;12.394;2023-09-12T02:48:09;17.80;99.90
25328;DHT22;13279;51.300;12.394;2023-09-12T02:50:38;17.70;99.90
25328;DHT22;13279;51.300;12.394;2023-09-12T02:53:06;17.70;99.90
25328;DHT22;13279;51.300;12.394;2023-09-12T02:55:33;17.70;99.90
25328;DHT22;13279;51.300;12.394;2023-09-12T02:58:01;17.70;99.90
25328;DHT22;13279;51.300;12.394;2023-09-12T03:00:30;17.70;99.90
25328;DHT22;13279;51.300;12.394;2023-09-12T03:02:57;17.70;99.90
25328;DHT22;13279;51.300;12.394;2023-09-12T03:05:25;17.70;99.90
25328;DHT22;13279;51.300;12.394;2023-09-12T03:07:55;17.70;99.90
25328;DHT22;13279;51.300;12.394;2023-09-12T03:10:23;17.70;99.90
25328;DHT22;13279;51.300;12.394;2023-09-12T03:12:51;17.70;99.90
25328;DHT22;13279;51.300;12.394;2023-09-12T03:15:20;17.60;99.90
25328;DHT22;13279;51.300;12.394;2023-09-12T03:17:49;17.60;99.90
25328;DHT22;13279;51.300;12.394;2023-09-12T03:20:16;17.60;99.90
25328;DHT22;13279;51.300;12.394;2023-09-12T03:22:48;17.50;99.90
25328;DHT22;13279;51.300;12.394;2023-09-12T03:25:17;17.50;99.90
25328;DHT22;13279;51.300;12.394;2023-09-12T03:27:45;17.50;99.90
25328;DHT22;13279;51.300;12.394;2023-09-12T03:30:13;17.40;99.90
25328;DHT22;13279;51.300;12.394;2023-09-12T03:32:40;17.30;99.90
25328;DHT22;13279;51.300;12.394;2023-09-12T03:35:09;17.30;99.90
25328;DHT22;13279;51.300;12.394;2023-09-12T03:37:39;17.30;99.90
25328;DHT22;13279;51.300;12.394;2023-09-12T03:40:10;17.30;99.90
25328;DHT22;13279;51.300;12.394;2023-09-12T03:42:42;17.30;99.90
25328;DHT22;13279;51.300;12.394;2023-09-12T03:45:10;17.30;99.90
25328;DHT22;13279;51.300;12.394;2023-09-12T03:47:39;17.30;99.90
25328;DHT22;13279;51.300;12.394;2023-09-12T03:50:09;17.30;99.90
25328;DHT22;13279;51.300;12.394;2023-09-12T03:52:37;17.30;99.90
25328;DHT22;13279;51.300;12.394;2023-09-12T03:55:05;17.30;99.90
25328;DHT22;13279;51.300;12.394;2023-09-12T03:57:34;17.20;99.90
25328;DHT22;13279;51.300;12.394;2023-09-12T04:00:03;17.20;99.90
25328;DHT22;13279;51.300;12.394;2023-09-12T04:02:39;17.20;99.90
25328;DHT22;13279;51.300;12.394;2023-09-12T04:05:08;17.20;99.90
25328;DHT22;13279;51.300;12.394;2023-09-12T04:07:36;17.10;99.90
25328;DHT22;13279;51.300;12.394;2023-09-12T04:10:05;17.10;99.90
25328;DHT22;13279;51.300;12.394;2023-09-12T04:12:32;17.10;99.90
25328;DHT22;13279;51.300;12.394;2023-09-12T04:15:00;17.00;99.90
25328;DHT22;13279;51.300;12.394;2023-09-12T04:17:30;17.00;99.90
25328;DHT22;13279;51.300;12.394;2023-09-12T04:19:57;16.90;99.90
25328;DHT22;13279;51.300;12.394;2023-09-12T04:22:27;16.90;99.90
25328;DHT22;13279;51.300;12.394;2023-09-12T04:24:55;16.90;99.90
25328;DHT22;13279;51.300;12.394;2023-09-12T04:27:23;16.90;99.90
25328;DHT22;13279;51.300;12.394;2023-09-12T04:29:51;16.90;99.90
25328;DHT22;13279;51.300;12.394;2023-09-12T04:32:19;16.90;99.90
25328;DHT22;13279;51.300;12.394;2023-09-12T04:34:51;17.00;99.90
25328;DHT22;13279;51.300;12.394;2023-09-12T04:37:19;17.00;99.90
25328;DHT22;13279;51.300;12.394;2023-09-12T04:39:47;17.10;99.90
25328;DHT22;13279;51.300;12.394;2023-09-12T04:42:15;17.00;99.90
25328;DHT22;13279;51.300;12.394;2023-09-12T04:44:43;17.00;99.90
25328;DHT22;13279;51.300;12.394;2023-09-12T04:47:10;17.00;99.90
25328;DHT22;13279;51.300;12.394;2023-09-12T04:49:39;17.00;99.90
25328;DHT22;13279;51.300;12.394;2023-09-12T04:52:07;17.00;99.90
25328;DHT22;13279;51.300;12.394;2023-09-12T04:54:35;17.10;99.90
25328;DHT22;13279;51.300;12.394;2023-09-12T04:57:03;17.20;99.90
25328;DHT22;13279;51.300;12.394;2023-09-12T04:59:31;17.30;99.90
25328;DHT22;13279;51.300;12.394;2023-09-12T05:01:59;17.30;99.90
25328;DHT22;13279;51.300;12.394;2023-09-12T05:04:27;17.30;99.90
25328;DHT22;13279;51.300;12.394;2023-09-12T05:06:55;17.20;99.90
25328;DHT22;13279;51.300;12.394;2023-09-12T05:09:24;17.20;99.90
25328;DHT22;13279;51.300;12.394;2023-09-12T05:11:51;17.20;99.90
25328;DHT22;13279;51.300;12.394;2023-09-12T05:14:19;17.20;99.90
25328;DHT22;13279;51.300;12.394;2023-09-12T05:16:47;17.20;99.90
25328;DHT22;13279;51.300;12.394;2023-09-12T05:19:15;17.20;99.90
25328;DHT22;13279;51.300;12.394;2023-09-12T05:21:42;17.20;99.90
25328;DHT22;13279;51.300;12.394;2023-09-12T05:24:11;17.30;99.90
25328;DHT22;13279;51.300;12.394;2023-09-12T05:26:40;17.30;99.90
25328;DHT22;13279;51.300;12.394;2023-09-12T05:29:08;17.40;99.90
25328;DHT22;13279;51.300;12.394;2023-09-12T05:31:36;17.40;99.90
25328;DHT22;13279;51.300;12.394;2023-09-12T05:34:03;17.40;99.90
25328;DHT22;13279;51.300;12.394;2023-09-12T05:36:31;17.40;99.90
25328;DHT22;13279;51.300;12.394;2023-09-12T05:38:58;17.50;99.90
25328;DHT22;13279;51.300;12.394;2023-09-12T05:41:26;17.50;99.90
25328;DHT22;13279;51.300;12.394;2023-09-12T05:43:56;17.60;99.90
25328;DHT22;13279;51.300;12.394;2023-09-12T05:46:27;17.60;99.90
25328;DHT22;13279;51.300;12.394;2023-09-12T05:49:03;17.60;99.90
25328;DHT22;13279;51.300;12.394;2023-09-12T05:51:34;17.70;99.90
25328;DHT22;13279;51.300;12.394;2023-09-12T05:54:02;17.70;99.90
25328;DHT22;13279;51.300;12.394;2023-09-12T05:56:31;17.80;99.90
25328;DHT22;13279;51.300;12.394;2023-09-12T05:59:02;17.80;99.90
25328;DHT22;13279;51.300;12.394;2023-09-12T06:01:30;17.90;99.90
25328;DHT22;13279;51.300;12.394;2023-09-12T06:03:58;17.90;99.90
25328;DHT22;13279;51.300;12.394;2023-09-12T06:06:27;18.00;99.90
25328;DHT22;13279;51.300;12.394;2023-09-12T06:08:55;18.00;99.90
25328;DHT22;13279;51.300;12.394;2023-09-12T06:11:24;18.10;99.90
25328;DHT22;13279;51.300;12.394;2023-09-12T06:13:52;18.20;99.90
25328;DHT22;13279;51.300;12.394;2023-09-12T06:16:22;18.30;99.90
25328;DHT22;13279;51.300;12.394;2023-09-12T06:18:49;18.40;99.90
25328;DHT22;13279;51.300;12.394;2023-09-12T06:21:19;18.40;99.90
25328;DHT22;13279;51.300;12.394;2023-09-12T06:23:47;18.50;99.90
25328;DHT22;13279;51.300;12.394;2023-09-12T06:26:15;18.60;99.90
25328;DHT22;13279;51.300;12.394;2023-09-12T06:28:42;18.60;99.90
25328;DHT22;13279;51.300;12.394;2023-09-12T06:31:10;18.70;99.90
25328;DHT22;13279;51.300;12.394;2023-09-12T06:33:39;18.80;99.90
25328;DHT22;13279;51.300;12.394;2023-09-12T06:36:07;18.90;99.90
25328;DHT22;13279;51.300;12.394;2023-09-12T06:38:34;19.10;99.90
25328;DHT22;13279;51.300;12.394;2023-09-12T06:41:01;19.30;99.90
25328;DHT22;13279;51.300;12.394;2023-09-12T06:43:30;19.70;99.90
25328;DHT22;13279;51.300;12.394;2023-09-12T06:45:58;19.80;99.90
25328;DHT22;13279;51.300;12.394;2023-09-12T06:48:25;20.00;99.90
25328;DHT22;13279;51.300;12.394;2023-09-12T06:50:55;20.10;99.90
25328;DHT22;13279;51.300;12.394;2023-09-12T06:53:23;20.20;99.90
25328;DHT22;13279;51.300;12.394;2023-09-12T06:55:50;20.30;99.90
25328;DHT22;13279;51.300;12.394;2023-09-12T06:58:18;20.50;99.90
25328;DHT22;13279;51.300;12.394;2023-09-12T07:00:45;20.50;99.90
25328;DHT22;13279;51.300;12.394;2023-09-12T07:03:12;20.60;99.90
25328;DHT22;13279;51.300;12.394;2023-09-12T07:05:41;20.60;99.90
25328;DHT22;13279;51.300;12.394;2023-09-12T07:08:10;20.70;99.90
25328;DHT22;13279;51.300;12.394;2023-09-12T07:10:43;20.80;99.90
25328;DHT22;13279;51.300;12.394;2023-09-12T07:13:12;21.00;99.90
25328;DHT22;13279;51.300;12.394;2023-09-12T07:15:39;21.00;99.90
25328;DHT22;13279;51.300;12.394;2023-09-12T07:18:06;21.00;99.90
25328;DHT22;13279;51.300;12.394;2023-09-12T07:20:34;21.10;99.90
25328;DHT22;13279;51.300;12.394;2023-09-12T07:23:01;21.30;99.90
25328;DHT22;13279;51.300;12.394;2023-09-12T07:25:30;21.50;99.90
25328;DHT22;13279;51.300;12.394;2023-09-12T07:27:58;21.60;99.90
25328;DHT22;13279;51.300;12.394;2023-09-12T07:30:25;21.60;99.90
25328;DHT22;13279;51.300;12.394;2023-09-12T07:32:53;21.90;99.90
25328;DHT22;13279;51.300;12.394;2023-09-12T07:35:20;22.10;99.90
25328;DHT22;13279;51.300;12.394;2023-09-12T07:37:50;22.30;99.90
25328;DHT22;13279;51.300;12.394;2023-09-12T07:40:18;22.30;99.90
25328;DHT22;13279;51.300;12.394;2023-09-12T07:42:47;22.50;99.90
25328;DHT22;13279;51.300;12.394;2023-09-12T07:45:14;22.60;99.90
25328;DHT22;13279;51.300;12.394;2023-09-12T07:47:41;22.70;99.90
25328;DHT22;13279;51.300;12.394;2023-09-12T07:50:09;22.90;99.90
25328;DHT22;13279;51.300;12.394;2023-09-12T07:52:36;23.10;99.90
25328;DHT22;13279;51.300;12.394;2023-09-12T07:55:04;23.20;99.90
25328;DHT22;13279;51.300;12.394;2023-09-12T07:57:33;23.10;99.90
25328;DHT22;13279;51.300;12.394;2023-09-12T08:00:03;23.00;99.90
25328;DHT22;13279;51.300;12.394;2023-09-12T08:02:37;23.20;99.90
25328;DHT22;13279;51.300;12.394;2023-09-12T08:05:06;23.30;99.90
25328;DHT22;13279;51.300;12.394;2023-09-12T08:07:34;23.40;99.90
25328;DHT22;13279;51.300;12.394;2023-09-12T08:10:02;23.40;99.90
25328;DHT22;13279;51.300;12.394;2023-09-12T08:12:30;23.40;99.90
25328;DHT22;13279;51.300;12.394;2023-09-12T08:14:57;23.40;99.90
25328;DHT22;13279;51.300;12.394;2023-09-12T08:17:27;23.60;99.90
25328;DHT22;13279;51.300;12.394;2023-09-12T08:19:55;23.80;99.90
25328;DHT22;13279;51.300;12.394;2023-09-12T08:22:23;24.00;99.90
25328;DHT22;13279;51.300;12.394;2023-09-12T08:24:50;24.20;99.90
25328;DHT22;13279;51.300;12.394;2023-09-12T08:27:18;24.40;99.90
25328;DHT22;13279;51.300;12.394;2023-09-12T08:29:45;24.50;99.90
25328;DHT22;13279;51.300;12.394;2023-09-12T08:32:14;24.70;99.90
25328;DHT22;13279;51.300;12.394;2023-09-12T08:34:43;24.80;99.90
25328;DHT22;13279;51.300;12.394;2023-09-12T08:37:11;24.90;99.90
25328;DHT22;13279;51.300;12.394;2023-09-12T08:39:43;25.10;99.90
25328;DHT22;13279;51.300;12.394;2023-09-12T08:42:12;25.20;99.90
25328;DHT22;13279;51.300;12.394;2023-09-12T08:44:40;25.20;99.90
25328;DHT22;13279;51.300;12.394;2023-09-12T08:47:09;25.30;99.90
25328;DHT22;13279;51.300;12.394;2023-09-12T08:49:38;25.20;99.90
25328;DHT22;13279;51.300;12.394;2023-09-12T08:52:09;25.40;99.90
25328;DHT22;13279;51.300;12.394;2023-09-12T08:54:36;25.50;99.90
25328;DHT22;13279;51.300;12.394;2023-09-12T08:57:05;25.50;99.90
25328;DHT22;13279;51.300;12.394;2023-09-12T08:59:34;25.70;99.90
25328;DHT22;13279;51.300;12.394;2023-09-12T09:02:03;25.70;99.90
25328;DHT22;13279;51.300;12.394;2023-09-12T09:04:34;25.60;99.90
25328;DHT22;13279;51.300;12.394;2023-09-12T09:07:03;25.70;99.90
25328;DHT22;13279;51.300;12.394;2023-09-12T09:09:32;25.80;99.90
25328;DHT22;13279;51.300;12.394;2023-09-12T09:11:59;25.80;99.90
25328;DHT22;13279;51.300;12.394;2023-09-12T09:14:29;25.80;99.90
25328;DHT22;13279;51.300;12.394;2023-09-12T09:16:58;25.90;99.90
25328;DHT22;13279;51.300;12.394;2023-09-12T09:19:40;25.90;99.90
25328;DHT22;13279;51.300;12.394;2023-09-12T09:22:08;26.10;99.90
25328;DHT22;13279;51.300;12.394;2023-09-12T09:24:37;26.30;99.90
25328;DHT22;13279;51.300;12.394;2023-09-12T09:27:04;26.40;99.90
25328;DHT22;13279;51.300;12.394;2023-09-12T09:29:31;26.40;99.90
25328;DHT22;13279;51.300;12.394;2023-09-12T09:32:00;26.50;99.90
25328;DHT22;13279;51.300;12.394;2023-09-12T09:34:27;26.40;99.90
25328;DHT22;13279;51.300;12.394;2023-09-12T09:36:57;26.50;99.90
25328;DHT22;13279;51.300;12.394;2023-09-12T09:39:25;26.50;99.90
25328;DHT22;13279;51.300;12.394;2023-09-12T09:41:56;26.50;99.90
25328;DHT22;13279;51.300;12.394;2023-09-12T09:44:25;26.50;99.90
25328;DHT22;13279;51.300;12.394;2023-09-12T09:46:55;26.50;99.90
25328;DHT22;13279;51.300;12.394;2023-09-12T09:49:22;26.40;99.90
25328;DHT22;13279;51.300;12.394;2023-09-12T09:51:50;26.50;99.90
25328;DHT22;13279;51.300;12.394;2023-09-12T09:54:17;26.40;99.90
25328;DHT22;13279;51.300;12.394;2023-09-12T09:56:45;26.50;99.90
25328;DHT22;13279;51.300;12.394;2023-09-12T09:59:19;26.50;99.90
25328;DHT22;13279;51.300;12.394;2023-09-12T10:01:49;26.50;99.90
25328;DHT22;13279;51.300;12.394;2023-09-12T10:04:17;26.60;99.90
25328;DHT22;13279;51.300;12.394;2023-09-12T10:06:46;26.70;99.90
25328;DHT22;13279;51.300;12.394;2023-09-12T10:09:14;26.70;99.90
25328;DHT22;13279;51.300;12.394;2023-09-12T10:11:43;26.70;99.90
25328;DHT22;13279;51.300;12.394;2023-09-12T10:14:15;26.70;99.90
25328;DHT22;13279;51.300;12.394;2023-09-12T10:16:47;26.80;99.90
25328;DHT22;13279;51.300;12.394;2023-09-12T10:19:17;27.10;99.90
25328;DHT22;13279;51.300;12.394;2023-09-12T10:21:48;27.30;99.90
25328;DHT22;13279;51.300;12.394;2023-09-12T10:24:16;27.50;99.90
25328;DHT22;13279;51.300;12.394;2023-09-12T10:26:44;27.50;99.90
25328;DHT22;13279;51.300;12.394;2023-09-12T10:29:14;27.40;99.90
25328;DHT22;13279;51.300;12.394;2023-09-12T10:31:43;27.50;99.90
25328;DHT22;13279;51.300;12.394;2023-09-12T10:34:14;27.70;99.90
25328;DHT22;13279;51.300;12.394;2023-09-12T10:36:43;27.70;99.90
25328;DHT22;13279;51.300;12.394;2023-09-12T10:39:12;27.80;99.90
25328;DHT22;13279;51.300;12.394;2023-09-12T10:41:40;27.70;99.90
25328;DHT22;13279;51.300;12.394;2023-09-12T10:44:10;27.90;99.90
25328;DHT22;13279;51.300;12.394;2023-09-12T10:46:38;28.10;99.90
25328;DHT22;13279;51.300;12.394;2023-09-12T10:49:07;28.20;99.90
25328;DHT22;13279;51.300;12.394;2023-09-12T10:51:39;28.20;99.90
25328;DHT22;13279;51.300;12.394;2023-09-12T10:54:08;28.40;99.90
25328;DHT22;13279;51.300;12.394;2023-09-12T10:56:35;28.40;99.90
25328;DHT22;13279;51.300;12.394;2023-09-12T10:59:09;28.60;99.90
25328;DHT22;13279;51.300;12.394;2023-09-12T11:01:39;28.70;99.90
25328;DHT22;13279;51.300;12.394;2023-09-12T11:04:31;28.60;99.90
25328;DHT22;13279;51.300;12.394;2023-09-12T11:07:02;28.50;99.90
25328;DHT22;13279;51.300;12.394;2023-09-12T11:10:16;28.50;99.90
25328;DHT22;13279;51.300;12.394;2023-09-12T11:12:45;28.50;99.90
25328;DHT22;13279;51.300;12.394;2023-09-12T11:15:13;28.10;99.90
25328;DHT22;13279;51.300;12.394;2023-09-12T11:17:41;28.20;99.90
25328;DHT22;13279;51.300;12.394;2023-09-12T11:20:10;28.60;99.90
25328;DHT22;13279;51.300;12.394;2023-09-12T11:22:40;28.80;99.90
25328;DHT22;13279;51.300;12.394;2023-09-12T11:25:21;28.80;99.90
25328;DHT22;13279;51.300;12.394;2023-09-12T11:28:03;29.10;99.90
25328;DHT22;13279;51.300;12.394;2023-09-12T11:30:31;29.00;99.90
25328;DHT22;13279;51.300;12.394;2023-09-12T11:33:03;29.00;99.90
25328;DHT22;13279;51.300;12.394;2023-09-12T11:35:36;29.00;99.90
25328;DHT22;13279;51.300;12.394;2023-09-12T11:38:09;29.10;99.90
25328;DHT22;13279;51.300;12.394;2023-09-12T11:40:44;29.20;99.90
25328;DHT22;13279;51.300;12.394;2023-09-12T11:43:22;29.60;99.90
25328;DHT22;13279;51.300;12.394;2023-09-12T11:45:50;29.60;99.90
25328;DHT22;13279;51.300;12.394;2023-09-12T11:48:18;30.00;99.90
25328;DHT22;13279;51.300;12.394;2023-09-12T11:50:51;30.40;99.90
25328;DHT22;13279;51.300;12.394;2023-09-12T11:53:21;30.50;99.90
25328;DHT22;13279;51.300;12.394;2023-09-12T11:55:53;30.20;99.90
25328;DHT22;13279;51.300;12.394;2023-09-12T11:58:21;30.10;99.90
25328;DHT22;13279;51.300;12.394;2023-09-12T12:00:50;30.10;99.90
25328;DHT22;13279;51.300;12.394;2023-09-12T12:03:24;30.10;99.90
25328;DHT22;13279;51.300;12.394;2023-09-12T12:05:53;29.50;99.90
25328;DHT22;13279;51.300;12.394;2023-09-12T12:08:23;29.30;99.90
25328;DHT22;13279;51.300;12.394;2023-09-12T12:10:51;29.20;99.90
25328;DHT22;13279;51.300;12.394;2023-09-12T12:13:19;29.60;99.90
25328;DHT22;13279;51.300;12.394;2023-09-12T12:15:47;29.60;99.90
25328;DHT22;13279;51.300;12.394;2023-09-12T12:18:15;29.70;99.90
25328;DHT22;13279;51.300;12.394;2023-09-12T12:20:43;29.60;99.90
25328;DHT22;13279;51.300;12.394;2023-09-12T12:23:10;29.40;99.90
25328;DHT22;13279;51.300;12.394;2023-09-12T12:25:39;29.60;99.90
25328;DHT22;13279;51.300;12.394;2023-09-12T12:28:07;29.70;99.90
25328;DHT22;13279;51.300;12.394;2023-09-12T12:30:35;30.00;99.90
25328;DHT22;13279;51.300;12.394;2023-09-12T12:33:07;30.00;99.90
25328;DHT22;13279;51.300;12.394;2023-09-12T12:35:34;30.00;99.90
25328;DHT22;13279;51.300;12.394;2023-09-12T12:38:03;29.90;99.90
25328;DHT22;13279;51.300;12.394;2023-09-12T12:40:30;29.80;99.90
25328;DHT22;13279;51.300;12.394;2023-09-12T12:42:59;29.60;99.90
25328;DHT22;13279;51.300;12.394;2023-09-12T12:45:26;29.50;99.90
25328;DHT22;13279;51.300;12.394;2023-09-12T12:47:58;29.60;99.90
25328;DHT22;13279;51.300;12.394;2023-09-12T12:50:26;29.60;99.90
25328;DHT22;13279;51.300;12.394;2023-09-12T12:52:54;29.70;99.90
25328;DHT22;13279;51.300;12.394;2023-09-12T12:55:21;29.60;99.90
25328;DHT22;13279;51.300;12.394;2023-09-12T12:57:52;29.50;99.90
25328;DHT22;13279;51.300;12.394;2023-09-12T13:00:21;29.40;99.90
25328;DHT22;13279;51.300;12.394;2023-09-12T13:02:49;29.30;99.90
25328;DHT22;13279;51.300;12.394;2023-09-12T13:05:24;29.30;99.90
25328;DHT22;13279;51.300;12.394;2023-09-12T13:07:51;29.30;99.90
25328;DHT22;13279;51.300;12.394;2023-09-12T13:10:19;29.50;99.90
25328;DHT22;13279;51.300;12.394;2023-09-12T13:12:46;29.50;99.90
25328;DHT22;13279;51.300;12.394;2023-09-12T13:15:14;29.60;99.90
25328;DHT22;13279;51.300;12.394;2023-09-12T13:17:44;30.40;99.90
25328;DHT22;13279;51.300;12.394;2023-09-12T13:20:12;30.90;99.90
25328;DHT22;13279;51.300;12.394;2023-09-12T13:22:40;31.10;99.90
25328;DHT22;13279;51.300;12.394;2023-09-12T13:25:10;31.00;99.90
25328;DHT22;13279;51.300;12.394;2023-09-12T13:27:37;30.90;99.90
25328;DHT22;13279;51.300;12.394;2023-09-12T13:30:06;30.80;99.90
25328;DHT22;13279;51.300;12.394;2023-09-12T13:32:34;30.70;99.90
25328;DHT22;13279;51.300;12.394;2023-09-12T13:35:04;30.70;99.90
25328;DHT22;13279;51.300;12.394;2023-09-12T13:37:32;30.40;99.90
25328;DHT22;13279;51.300;12.394;2023-09-12T13:39:59;30.50;99.90
25328;DHT22;13279;51.300;12.394;2023-09-12T13:42:27;30.50;99.90
25328;DHT22;13279;51.300;12.394;2023-09-12T13:44:57;30.50;99.90
25328;DHT22;13279;51.300;12.394;2023-09-12T13:47:24;30.40;99.90
25328;DHT22;13279;51.300;12.394;2023-09-12T13:49:52;30.60;99.90
25328;DHT22;13279;51.300;12.394;2023-09-12T13:52:25;30.50;99.90
25328;DHT22;13279;51.300;12.394;2023-09-12T13:54:53;30.80;99.90
25328;DHT22;13279;51.300;12.394;2023-09-12T13:57:21;31.40;99.90
25328;DHT22;13279;51.300;12.394;2023-09-12T13:59:48;31.70;99.90
25328;DHT22;13279;51.300;12.394;2023-09-12T14:02:16;32.00;99.90
25328;DHT22;13279;51.300;12.394;2023-09-12T14:04:44;32.70;99.90
25328;DHT22;13279;51.300;12.394;2023-09-12T14:07:12;33.20;99.90
25328;DHT22;13279;51.300;12.394;2023-09-12T14:09:41;33.30;99.90
25328;DHT22;13279;51.300;12.394;2023-09-12T14:12:08;32.50;99.90
25328;DHT22;13279;51.300;12.394;2023-09-12T14:14:37;32.70;99.90
25328;DHT22;13279;51.300;12.394;2023-09-12T14:17:04;32.90;99.90
25328;DHT22;13279;51.300;12.394;2023-09-12T14:19:32;33.10;99.90
25328;DHT22;13279;51.300;12.394;2023-09-12T14:22:00;33.70;99.90
25328;DHT22;13279;51.300;12.394;2023-09-12T14:24:27;33.80;99.90
25328;DHT22;13279;51.300;12.394;2023-09-12T14:26:56;34.30;99.90
25328;DHT22;13279;51.300;12.394;2023-09-12T14:29:24;34.20;99.90
25328;DHT22;13279;51.300;12.394;2023-09-12T14:31:54;34.30;99.90
25328;DHT22;13279;51.300;12.394;2023-09-12T14:34:24;33.50;99.90
25328;DHT22;13279;51.300;12.394;2023-09-12T14:36:53;33.20;99.90
25328;DHT22;13279;51.300;12.394;2023-09-12T14:39:20;33.10;99.90
25328;DHT22;13279;51.300;12.394;2023-09-12T14:41:48;33.60;99.90
25328;DHT22;13279;51.300;12.394;2023-09-12T14:44:19;33.10;99.90
25328;DHT22;13279;51.300;12.394;2023-09-12T14:46:47;32.70;99.90
25328;DHT22;13279;51.300;12.394;2023-09-12T14:49:15;32.50;99.90
25328;DHT22;13279;51.300;12.394;2023-09-12T14:51:42;32.40;99.90
25328;DHT22;13279;51.300;12.394;2023-09-12T14:54:10;32.60;99.90
25328;DHT22;13279;51.300;12.394;2023-09-12T14:56:38;32.70;99.90
25328;DHT22;13279;51.300;12.394;2023-09-12T14:59:08;32.70;99.90
25328;DHT22;13279;51.300;12.394;2023-09-12T15:01:37;32.90;99.90
25328;DHT22;13279;51.300;12.394;2023-09-12T15:04:04;33.10;99.90
25328;DHT22;13279;51.300;12.394;2023-09-12T15:06:32;33.00;99.90
25328;DHT22;13279;51.300;12.394;2023-09-12T15:09:00;32.70;99.90
25328;DHT22;13279;51.300;12.394;2023-09-12T15:11:27;33.00;99.90
25328;DHT22;13279;51.300;12.394;2023-09-12T15:13:55;33.20;99.90
25328;DHT22;13279;51.300;12.394;2023-09-12T15:16:23;32.80;99.90
25328;DHT22;13279;51.300;12.394;2023-09-12T15:18:53;32.50;99.90
25328;DHT22;13279;51.300;12.394;2023-09-12T15:21:20;32.50;99.90
25328;DHT22;13279;51.300;12.394;2023-09-12T15:23:48;31.90;99.90
25328;DHT22;13279;51.300;12.394;2023-09-12T15:26:16;31.30;99.90